Boca do Acre, Brazil
Current Conditions -  °F | °C
As of 5:00 PM on Thursday 23 Oct 2014 (Local Time) from SBRB Reporting Station
Few Clouds Few Clouds  
Wind Chill: 91°   Ceiling: Unl
Heat Index: 94°   Visibility: 6mi
Dew Point: 66°   Wind: 3mph
Humidity: 43%   Direction: 220°SW
Pressure: 29.71"   Gusts: NA
Location:  8.74°S, 67.4°W
Report Text: SBRB 232100Z 22003KT 9999 FEW030 33/19 Q1006
Loading
Personal Weather Stations






























Interactive Weather Map
Tropical Storm Tracking
New forecast layout! Learn more

10-Day Weather Forecast

Advertisements
Track Severe Weather on mobile